Terminal Aerodrome Forecast
Issued by NWS Wilmington, NC

Home | Current Version | Previous Version | Text Only | Print | Product List | Glossary On
Versions: 1 2 3 4 5 6 7 8 9 10 11 12 13 14 15 16 17 18 19 20 21 22
000
FTUS42 KILM 232300
TAFMYR
TAF
KMYR 232333Z 2400/2424 22008KT P6SM SCT015 SCT050 SCT120
     FM241400 23010KT P6SM SCT030
     FM241700 21014KT P6SM VCTS SCT035CB BKN080
      TEMPO 2418/2421 VRB20KT 3SM TSRA BKN010CB
     FM242100 22016KT P6SM VCSH SCT050 BKN100
      AMD LTD TO CLD VIS AND WIND 2404/2411=

USA.gov is the U.S. government's official web portal to all federal, state and local government web resources and services.